sensor_id;sensor_type;location;lat;lon;timestamp;temperature;humidity
13561;DHT22;6852;51.686;5.314;2022-12-18T00:00:47;-2.30;99.90
13561;DHT22;6852;51.686;5.314;2022-12-18T00:03:14;-2.30;99.90
13561;DHT22;6852;51.686;5.314;2022-12-18T00:05:49;-2.30;99.90
13561;DHT22;6852;51.686;5.314;2022-12-18T00:08:17;-2.30;99.90
13561;DHT22;6852;51.686;5.314;2022-12-18T00:10:45;-2.40;99.90
13561;DHT22;6852;51.686;5.314;2022-12-18T00:13:12;-2.50;99.90
13561;DHT22;6852;51.686;5.314;2022-12-18T00:15:39;-2.50;99.90
13561;DHT22;6852;51.686;5.314;2022-12-18T00:18:06;-2.60;99.90
13561;DHT22;6852;51.686;5.314;2022-12-18T00:20:37;-2.50;99.90
13561;DHT22;6852;51.686;5.314;2022-12-18T00:23:06;-2.60;99.90
13561;DHT22;6852;51.686;5.314;2022-12-18T00:25:34;-2.70;99.90
13561;DHT22;6852;51.686;5.314;2022-12-18T00:28:03;-2.80;99.90
13561;DHT22;6852;51.686;5.314;2022-12-18T00:30:30;-2.70;99.90
13561;DHT22;6852;51.686;5.314;2022-12-18T00:32:57;-2.60;99.90
13561;DHT22;6852;51.686;5.314;2022-12-18T00:35:24;-2.60;99.90
13561;DHT22;6852;51.686;5.314;2022-12-18T00:37:51;-2.60;99.90
13561;DHT22;6852;51.686;5.314;2022-12-18T00:40:18;-2.60;99.90
13561;DHT22;6852;51.686;5.314;2022-12-18T00:42:44;-2.60;99.90
13561;DHT22;6852;51.686;5.314;2022-12-18T00:45:33;-2.50;99.90
13561;DHT22;6852;51.686;5.314;2022-12-18T00:47:59;-2.60;99.90
13561;DHT22;6852;51.686;5.314;2022-12-18T00:50:26;-2.60;99.90
13561;DHT22;6852;51.686;5.314;2022-12-18T00:52:53;-2.60;99.90
13561;DHT22;6852;51.686;5.314;2022-12-18T00:55:20;-2.60;99.90
13561;DHT22;6852;51.686;5.314;2022-12-18T00:57:46;-2.60;93.80
13561;DHT22;6852;51.686;5.314;2022-12-18T01:00:14;-2.60;75.10
13561;DHT22;6852;51.686;5.314;2022-12-18T01:02:41;-2.70;80.30
13561;DHT22;6852;51.686;5.314;2022-12-18T01:05:10;-2.70;56.20
13561;DHT22;6852;51.686;5.314;2022-12-18T01:07:37;-2.80;56.50
13561;DHT22;6852;51.686;5.314;2022-12-18T01:10:05;-2.80;99.90
13561;DHT22;6852;51.686;5.314;2022-12-18T01:12:33;-2.80;72.40
13561;DHT22;6852;51.686;5.314;2022-12-18T01:15:00;-2.70;72.20
13561;DHT22;6852;51.686;5.314;2022-12-18T01:17:27;-2.70;11.60
13561;DHT22;6852;51.686;5.314;2022-12-18T01:19:54;-2.80;1.00
13561;DHT22;6852;51.686;5.314;2022-12-18T01:22:21;-2.90;1.00
13561;DHT22;6852;51.686;5.314;2022-12-18T01:24:47;-2.90;1.00
13561;DHT22;6852;51.686;5.314;2022-12-18T01:27:14;-2.90;1.00
13561;DHT22;6852;51.686;5.314;2022-12-18T01:29:41;-2.90;1.00
13561;DHT22;6852;51.686;5.314;2022-12-18T01:32:09;-2.90;1.00
13561;DHT22;6852;51.686;5.314;2022-12-18T01:34:36;-2.90;1.00
13561;DHT22;6852;51.686;5.314;2022-12-18T01:37:04;-2.90;1.00
13561;DHT22;6852;51.686;5.314;2022-12-18T01:39:32;-2.90;1.00
13561;DHT22;6852;51.686;5.314;2022-12-18T01:42:00;-2.90;1.00
13561;DHT22;6852;51.686;5.314;2022-12-18T01:52:45;-3.00;1.00
13561;DHT22;6852;51.686;5.314;2022-12-18T01:55:17;-2.90;1.00
13561;DHT22;6852;51.686;5.314;2022-12-18T01:57:44;-2.90;1.00
13561;DHT22;6852;51.686;5.314;2022-12-18T02:00:18;-2.90;1.00
13561;DHT22;6852;51.686;5.314;2022-12-18T02:02:46;-3.00;1.00
13561;DHT22;6852;51.686;5.314;2022-12-18T02:05:43;-3.00;1.00
13561;DHT22;6852;51.686;5.314;2022-12-18T02:08:09;-3.00;1.00
13561;DHT22;6852;51.686;5.314;2022-12-18T02:11:05;-3.00;1.00
13561;DHT22;6852;51.686;5.314;2022-12-18T02:13:46;-3.00;1.00
13561;DHT22;6852;51.686;5.314;2022-12-18T02:16:44;-3.00;1.00
13561;DHT22;6852;51.686;5.314;2022-12-18T02:19:55;-2.90;1.00
13561;DHT22;6852;51.686;5.314;2022-12-18T02:22:37;-2.90;99.90
13561;DHT22;6852;51.686;5.314;2022-12-18T02:28:11;-3.20;1.00
13561;DHT22;6852;51.686;5.314;2022-12-18T02:30:40;-3.20;1.00
13561;DHT22;6852;51.686;5.314;2022-12-18T02:33:11;-3.20;1.00
13561;DHT22;6852;51.686;5.314;2022-12-18T02:35:40;-3.20;99.90
13561;DHT22;6852;51.686;5.314;2022-12-18T02:38:09;-3.30;99.90
13561;DHT22;6852;51.686;5.314;2022-12-18T02:40:38;-3.10;1.00
13561;DHT22;6852;51.686;5.314;2022-12-18T02:43:11;-3.10;1.00
13561;DHT22;6852;51.686;5.314;2022-12-18T02:45:56;-3.10;1.00
13561;DHT22;6852;51.686;5.314;2022-12-18T02:48:32;-3.10;1.00
13561;DHT22;6852;51.686;5.314;2022-12-18T02:51:18;-3.10;1.00
13561;DHT22;6852;51.686;5.314;2022-12-18T02:53:56;-3.20;1.00
13561;DHT22;6852;51.686;5.314;2022-12-18T02:56:31;-3.20;1.00
13561;DHT22;6852;51.686;5.314;2022-12-18T02:59:06;-3.30;99.90
13561;DHT22;6852;51.686;5.314;2022-12-18T03:04:40;-3.30;1.00
13561;DHT22;6852;51.686;5.314;2022-12-18T03:07:13;-3.40;1.00
13561;DHT22;6852;51.686;5.314;2022-12-18T03:09:46;-3.40;1.00
13561;DHT22;6852;51.686;5.314;2022-12-18T03:12:27;-3.50;1.00
13561;DHT22;6852;51.686;5.314;2022-12-18T03:17:27;-3.60;1.00
13561;DHT22;6852;51.686;5.314;2022-12-18T03:20:00;-3.70;1.00
13561;DHT22;6852;51.686;5.314;2022-12-18T03:22:32;-3.80;1.00
13561;DHT22;6852;51.686;5.314;2022-12-18T03:25:03;-3.70;1.00
13561;DHT22;6852;51.686;5.314;2022-12-18T03:27:31;-3.80;1.00
13561;DHT22;6852;51.686;5.314;2022-12-18T03:30:08;-3.80;1.00
13561;DHT22;6852;51.686;5.314;2022-12-18T03:35:47;-3.70;1.00
13561;DHT22;6852;51.686;5.314;2022-12-18T03:38:14;-3.60;1.00
13561;DHT22;6852;51.686;5.314;2022-12-18T03:41:00;-3.90;1.00
13561;DHT22;6852;51.686;5.314;2022-12-18T03:43:37;-3.80;1.00
13561;DHT22;6852;51.686;5.314;2022-12-18T03:46:31;-3.70;1.00
13561;DHT22;6852;51.686;5.314;2022-12-18T03:49:28;-3.70;1.00
13561;DHT22;6852;51.686;5.314;2022-12-18T03:52:15;-3.70;1.00
13561;DHT22;6852;51.686;5.314;2022-12-18T03:54:45;-3.80;1.00
13561;DHT22;6852;51.686;5.314;2022-12-18T03:57:19;-3.70;1.00
13561;DHT22;6852;51.686;5.314;2022-12-18T03:59:49;-3.70;1.00
13561;DHT22;6852;51.686;5.314;2022-12-18T04:02:18;-3.70;99.90
13561;DHT22;6852;51.686;5.314;2022-12-18T04:04:46;-3.70;99.90
13561;DHT22;6852;51.686;5.314;2022-12-18T04:07:14;-3.60;1.00
13561;DHT22;6852;51.686;5.314;2022-12-18T04:09:43;-3.70;99.90
13561;DHT22;6852;51.686;5.314;2022-12-18T04:12:12;-3.80;99.90
13561;DHT22;6852;51.686;5.314;2022-12-18T04:14:39;-3.70;99.90
13561;DHT22;6852;51.686;5.314;2022-12-18T04:17:06;-3.70;99.90
13561;DHT22;6852;51.686;5.314;2022-12-18T04:19:33;-3.80;99.90
13561;DHT22;6852;51.686;5.314;2022-12-18T04:21:59;-3.90;99.90
13561;DHT22;6852;51.686;5.314;2022-12-18T04:24:26;-3.90;99.90
13561;DHT22;6852;51.686;5.314;2022-12-18T04:26:54;-4.00;99.90
13561;DHT22;6852;51.686;5.314;2022-12-18T04:29:21;-3.90;99.90
13561;DHT22;6852;51.686;5.314;2022-12-18T04:31:47;-3.90;99.90
13561;DHT22;6852;51.686;5.314;2022-12-18T04:34:14;-3.90;99.90
13561;DHT22;6852;51.686;5.314;2022-12-18T04:36:41;-3.90;99.90
13561;DHT22;6852;51.686;5.314;2022-12-18T04:39:08;-3.80;99.90
13561;DHT22;6852;51.686;5.314;2022-12-18T04:41:34;-3.80;99.90
13561;DHT22;6852;51.686;5.314;2022-12-18T04:44:01;-3.80;1.00
13561;DHT22;6852;51.686;5.314;2022-12-18T04:46:28;-3.80;1.00
13561;DHT22;6852;51.686;5.314;2022-12-18T04:48:55;-3.70;1.00
13561;DHT22;6852;51.686;5.314;2022-12-18T04:51:22;-3.70;1.00
13561;DHT22;6852;51.686;5.314;2022-12-18T04:53:52;-3.60;1.00
13561;DHT22;6852;51.686;5.314;2022-12-18T04:56:19;-3.70;1.00
13561;DHT22;6852;51.686;5.314;2022-12-18T04:58:46;-3.60;1.00
13561;DHT22;6852;51.686;5.314;2022-12-18T05:01:14;-3.60;1.00
13561;DHT22;6852;51.686;5.314;2022-12-18T05:03:42;-3.80;1.00
13561;DHT22;6852;51.686;5.314;2022-12-18T05:06:10;-3.60;1.00
13561;DHT22;6852;51.686;5.314;2022-12-18T05:08:37;-3.60;1.00
13561;DHT22;6852;51.686;5.314;2022-12-18T05:11:09;-3.60;1.00
13561;DHT22;6852;51.686;5.314;2022-12-18T05:13:36;-3.70;1.00
13561;DHT22;6852;51.686;5.314;2022-12-18T05:16:05;-3.70;1.00
13561;DHT22;6852;51.686;5.314;2022-12-18T05:18:32;-3.70;1.00
13561;DHT22;6852;51.686;5.314;2022-12-18T05:20:59;-3.80;1.00
13561;DHT22;6852;51.686;5.314;2022-12-18T05:23:26;-3.80;1.00
13561;DHT22;6852;51.686;5.314;2022-12-18T05:25:58;-3.90;1.00
13561;DHT22;6852;51.686;5.314;2022-12-18T05:28:27;-4.00;1.00
13561;DHT22;6852;51.686;5.314;2022-12-18T05:30:57;-4.00;1.00
13561;DHT22;6852;51.686;5.314;2022-12-18T05:33:25;-4.00;1.00
13561;DHT22;6852;51.686;5.314;2022-12-18T05:35:57;-4.10;1.00
13561;DHT22;6852;51.686;5.314;2022-12-18T05:38:26;-4.00;1.00
13561;DHT22;6852;51.686;5.314;2022-12-18T05:40:53;-4.00;1.00
13561;DHT22;6852;51.686;5.314;2022-12-18T05:43:21;-4.10;1.00
13561;DHT22;6852;51.686;5.314;2022-12-18T05:45:52;-4.10;1.00
13561;DHT22;6852;51.686;5.314;2022-12-18T05:48:20;-4.20;1.00
13561;DHT22;6852;51.686;5.314;2022-12-18T05:50:48;-4.30;1.00
13561;DHT22;6852;51.686;5.314;2022-12-18T05:53:18;-4.30;1.00
13561;DHT22;6852;51.686;5.314;2022-12-18T05:55:46;-4.30;99.90
13561;DHT22;6852;51.686;5.314;2022-12-18T05:58:14;-4.40;78.20
13561;DHT22;6852;51.686;5.314;2022-12-18T06:00:44;-4.30;99.90
13561;DHT22;6852;51.686;5.314;2022-12-18T06:03:11;-4.40;99.90
13561;DHT22;6852;51.686;5.314;2022-12-18T06:05:44;-4.30;99.90
13561;DHT22;6852;51.686;5.314;2022-12-18T06:08:12;-4.10;99.90
13561;DHT22;6852;51.686;5.314;2022-12-18T06:10:39;-4.00;93.30
13561;DHT22;6852;51.686;5.314;2022-12-18T06:13:07;-3.90;1.00
13561;DHT22;6852;51.686;5.314;2022-12-18T06:15:36;-4.10;1.00
13561;DHT22;6852;51.686;5.314;2022-12-18T06:18:03;-4.20;1.00
13561;DHT22;6852;51.686;5.314;2022-12-18T06:20:30;-4.20;1.00
13561;DHT22;6852;51.686;5.314;2022-12-18T06:22:59;-4.30;98.00
13561;DHT22;6852;51.686;5.314;2022-12-18T06:25:26;-4.20;99.90
13561;DHT22;6852;51.686;5.314;2022-12-18T06:27:53;-4.10;91.50
13561;DHT22;6852;51.686;5.314;2022-12-18T06:30:20;-4.10;1.00
13561;DHT22;6852;51.686;5.314;2022-12-18T06:32:48;-4.00;10.50
13561;DHT22;6852;51.686;5.314;2022-12-18T06:35:22;-4.10;1.00
13561;DHT22;6852;51.686;5.314;2022-12-18T06:37:49;-4.10;1.00
13561;DHT22;6852;51.686;5.314;2022-12-18T06:40:16;-4.10;1.00
13561;DHT22;6852;51.686;5.314;2022-12-18T06:42:43;-4.20;1.00
13561;DHT22;6852;51.686;5.314;2022-12-18T06:45:10;-4.20;1.00
13561;DHT22;6852;51.686;5.314;2022-12-18T06:47:37;-4.20;1.00
13561;DHT22;6852;51.686;5.314;2022-12-18T06:50:04;-4.20;1.00
13561;DHT22;6852;51.686;5.314;2022-12-18T06:52:32;-4.30;1.00
13561;DHT22;6852;51.686;5.314;2022-12-18T06:54:59;-4.30;1.00
13561;DHT22;6852;51.686;5.314;2022-12-18T06:57:26;-4.30;1.00
13561;DHT22;6852;51.686;5.314;2022-12-18T06:59:53;-4.20;12.10
13561;DHT22;6852;51.686;5.314;2022-12-18T07:02:21;-4.30;1.00
13561;DHT22;6852;51.686;5.314;2022-12-18T07:04:49;-4.30;1.00
13561;DHT22;6852;51.686;5.314;2022-12-18T07:07:16;-4.30;1.00
13561;DHT22;6852;51.686;5.314;2022-12-18T07:09:42;-4.40;1.00
13561;DHT22;6852;51.686;5.314;2022-12-18T07:12:09;-4.40;1.00
13561;DHT22;6852;51.686;5.314;2022-12-18T07:14:36;-4.40;1.00
13561;DHT22;6852;51.686;5.314;2022-12-18T07:17:03;-4.30;99.90
13561;DHT22;6852;51.686;5.314;2022-12-18T07:19:31;-4.20;90.40
13561;DHT22;6852;51.686;5.314;2022-12-18T07:21:58;-4.20;1.00
13561;DHT22;6852;51.686;5.314;2022-12-18T07:24:25;-4.20;1.00
13561;DHT22;6852;51.686;5.314;2022-12-18T07:26:51;-4.20;8.40
13561;DHT22;6852;51.686;5.314;2022-12-18T07:29:18;-4.20;1.00
13561;DHT22;6852;51.686;5.314;2022-12-18T07:31:45;-4.20;1.00
13561;DHT22;6852;51.686;5.314;2022-12-18T07:34:13;-4.10;1.00
13561;DHT22;6852;51.686;5.314;2022-12-18T07:36:40;-4.30;1.00
13561;DHT22;6852;51.686;5.314;2022-12-18T07:39:07;-4.20;99.90
13561;DHT22;6852;51.686;5.314;2022-12-18T07:41:34;-4.20;99.90
13561;DHT22;6852;51.686;5.314;2022-12-18T07:44:00;-4.20;1.00
13561;DHT22;6852;51.686;5.314;2022-12-18T07:46:27;-4.10;1.00
13561;DHT22;6852;51.686;5.314;2022-12-18T07:48:54;-4.00;1.00
13561;DHT22;6852;51.686;5.314;2022-12-18T07:51:21;-4.00;1.00
13561;DHT22;6852;51.686;5.314;2022-12-18T07:53:47;-4.10;1.00
13561;DHT22;6852;51.686;5.314;2022-12-18T07:56:18;-4.20;1.00
13561;DHT22;6852;51.686;5.314;2022-12-18T07:58:55;-4.10;1.00
13561;DHT22;6852;51.686;5.314;2022-12-18T08:01:23;-4.20;90.40
13561;DHT22;6852;51.686;5.314;2022-12-18T08:03:50;-4.20;99.90
13561;DHT22;6852;51.686;5.314;2022-12-18T08:06:18;-4.30;99.90
13561;DHT22;6852;51.686;5.314;2022-12-18T08:08:48;-4.10;99.90
13561;DHT22;6852;51.686;5.314;2022-12-18T08:11:15;-4.20;48.50
13561;DHT22;6852;51.686;5.314;2022-12-18T08:13:42;-3.90;99.90
13561;DHT22;6852;51.686;5.314;2022-12-18T08:16:09;-3.90;1.00
13561;DHT22;6852;51.686;5.314;2022-12-18T08:18:37;-3.90;92.80
13561;DHT22;6852;51.686;5.314;2022-12-18T08:21:12;-3.80;1.00
13561;DHT22;6852;51.686;5.314;2022-12-18T08:23:39;-3.80;1.00
13561;DHT22;6852;51.686;5.314;2022-12-18T08:26:09;-3.70;1.00
13561;DHT22;6852;51.686;5.314;2022-12-18T08:28:37;-3.70;1.00
13561;DHT22;6852;51.686;5.314;2022-12-18T08:31:09;-3.70;1.00
13561;DHT22;6852;51.686;5.314;2022-12-18T08:33:37;-3.60;1.00
13561;DHT22;6852;51.686;5.314;2022-12-18T08:36:08;-3.60;1.00
13561;DHT22;6852;51.686;5.314;2022-12-18T08:38:35;-3.50;1.00
13561;DHT22;6852;51.686;5.314;2022-12-18T08:41:07;-3.60;1.00
13561;DHT22;6852;51.686;5.314;2022-12-18T08:43:34;-3.70;1.00
13561;DHT22;6852;51.686;5.314;2022-12-18T08:46:21;-3.50;1.00
13561;DHT22;6852;51.686;5.314;2022-12-18T08:48:51;-3.40;1.00
13561;DHT22;6852;51.686;5.314;2022-12-18T08:51:19;-3.20;1.00
13561;DHT22;6852;51.686;5.314;2022-12-18T08:53:46;-3.40;1.00
13561;DHT22;6852;51.686;5.314;2022-12-18T08:56:14;-3.20;1.00
13561;DHT22;6852;51.686;5.314;2022-12-18T08:58:41;-3.20;1.00
13561;DHT22;6852;51.686;5.314;2022-12-18T09:01:10;-3.30;1.00
13561;DHT22;6852;51.686;5.314;2022-12-18T09:03:38;-3.30;1.00
13561;DHT22;6852;51.686;5.314;2022-12-18T09:06:06;-3.30;1.00
13561;DHT22;6852;51.686;5.314;2022-12-18T09:08:33;-3.30;1.00
13561;DHT22;6852;51.686;5.314;2022-12-18T09:11:00;-3.40;1.00
13561;DHT22;6852;51.686;5.314;2022-12-18T09:13:27;-3.20;1.00
13561;DHT22;6852;51.686;5.314;2022-12-18T09:15:54;-3.30;1.00
13561;DHT22;6852;51.686;5.314;2022-12-18T09:18:23;-3.10;1.00
13561;DHT22;6852;51.686;5.314;2022-12-18T09:20:50;-3.10;1.00
13561;DHT22;6852;51.686;5.314;2022-12-18T09:23:19;-2.80;1.00
13561;DHT22;6852;51.686;5.314;2022-12-18T09:25:46;-2.70;1.00
13561;DHT22;6852;51.686;5.314;2022-12-18T09:28:15;-2.70;99.90
13561;DHT22;6852;51.686;5.314;2022-12-18T09:30:45;-2.70;99.90
13561;DHT22;6852;51.686;5.314;2022-12-18T09:33:12;-2.60;99.90
13561;DHT22;6852;51.686;5.314;2022-12-18T09:35:41;-2.50;99.90
13561;DHT22;6852;51.686;5.314;2022-12-18T09:38:11;-2.60;99.90
13561;DHT22;6852;51.686;5.314;2022-12-18T09:40:45;-2.60;99.90
13561;DHT22;6852;51.686;5.314;2022-12-18T09:43:47;-2.60;1.00
13561;DHT22;6852;51.686;5.314;2022-12-18T09:46:25;-2.60;1.00
13561;DHT22;6852;51.686;5.314;2022-12-18T09:48:57;-2.50;99.90
13561;DHT22;6852;51.686;5.314;2022-12-18T09:51:37;-2.50;99.90
13561;DHT22;6852;51.686;5.314;2022-12-18T09:54:18;-2.60;99.90
13561;DHT22;6852;51.686;5.314;2022-12-18T09:56:46;-2.60;1.00
13561;DHT22;6852;51.686;5.314;2022-12-18T09:59:40;-2.50;1.00
13561;DHT22;6852;51.686;5.314;2022-12-18T10:02:23;-2.40;1.00
13561;DHT22;6852;51.686;5.314;2022-12-18T10:05:01;-2.30;99.90
13561;DHT22;6852;51.686;5.314;2022-12-18T10:07:40;-2.30;99.90
13561;DHT22;6852;51.686;5.314;2022-12-18T10:16:22;-2.30;99.90
13561;DHT22;6852;51.686;5.314;2022-12-18T10:22:03;-2.20;99.90
13561;DHT22;6852;51.686;5.314;2022-12-18T10:24:49;-2.00;99.90
13561;DHT22;6852;51.686;5.314;2022-12-18T10:27:25;-1.90;99.90
13561;DHT22;6852;51.686;5.314;2022-12-18T10:29:53;-2.10;99.90
13561;DHT22;6852;51.686;5.314;2022-12-18T10:32:27;-2.00;99.90
13561;DHT22;6852;51.686;5.314;2022-12-18T10:34:55;-2.10;99.90
13561;DHT22;6852;51.686;5.314;2022-12-18T10:37:27;-2.00;99.90
13561;DHT22;6852;51.686;5.314;2022-12-18T10:40:08;-1.90;99.90
13561;DHT22;6852;51.686;5.314;2022-12-18T10:42:36;-2.00;99.90
13561;DHT22;6852;51.686;5.314;2022-12-18T10:45:20;-2.00;99.90
13561;DHT22;6852;51.686;5.314;2022-12-18T10:47:49;-1.70;99.90
13561;DHT22;6852;51.686;5.314;2022-12-18T10:50:30;-1.60;99.90
13561;DHT22;6852;51.686;5.314;2022-12-18T10:53:27;-1.60;1.00
13561;DHT22;6852;51.686;5.314;2022-12-18T10:55:57;-1.60;16.90
13561;DHT22;6852;51.686;5.314;2022-12-18T10:58:29;-1.50;99.90
13561;DHT22;6852;51.686;5.314;2022-12-18T11:01:03;-1.50;1.00
13561;DHT22;6852;51.686;5.314;2022-12-18T11:03:33;-1.50;1.00
13561;DHT22;6852;51.686;5.314;2022-12-18T11:06:19;-1.50;1.00
13561;DHT22;6852;51.686;5.314;2022-12-18T11:09:02;-1.50;22.60
13561;DHT22;6852;51.686;5.314;2022-12-18T11:11:38;-1.60;1.00
13561;DHT22;6852;51.686;5.314;2022-12-18T11:14:11;-1.50;99.90
13561;DHT22;6852;51.686;5.314;2022-12-18T11:16:45;-1.60;99.90
13561;DHT22;6852;51.686;5.314;2022-12-18T11:19:35;-1.40;99.90
13561;DHT22;6852;51.686;5.314;2022-12-18T11:22:24;-1.40;1.00
13561;DHT22;6852;51.686;5.314;2022-12-18T11:25:02;-1.30;53.30
13561;DHT22;6852;51.686;5.314;2022-12-18T11:27:55;-1.10;1.00
13561;DHT22;6852;51.686;5.314;2022-12-18T11:30:24;-1.10;1.00
13561;DHT22;6852;51.686;5.314;2022-12-18T11:32:58;-1.10;1.00
13561;DHT22;6852;51.686;5.314;2022-12-18T11:38:28;-1.00;1.00
13561;DHT22;6852;51.686;5.314;2022-12-18T11:41:00;-1.00;1.00
13561;DHT22;6852;51.686;5.314;2022-12-18T11:43:41;-0.90;1.00
13561;DHT22;6852;51.686;5.314;2022-12-18T11:46:18;-1.00;1.00
13561;DHT22;6852;51.686;5.314;2022-12-18T11:48:54;-1.00;1.00
13561;DHT22;6852;51.686;5.314;2022-12-18T11:54:14;-0.80;1.00
13561;DHT22;6852;51.686;5.314;2022-12-18T11:56:51;-0.80;1.00
13561;DHT22;6852;51.686;5.314;2022-12-18T11:59:54;-0.80;1.00
13561;DHT22;6852;51.686;5.314;2022-12-18T12:07:56;-0.80;1.00
13561;DHT22;6852;51.686;5.314;2022-12-18T12:10:47;-0.80;1.00
13561;DHT22;6852;51.686;5.314;2022-12-18T12:19:28;-0.50;1.00
13561;DHT22;6852;51.686;5.314;2022-12-18T12:30:16;-0.60;1.00
13561;DHT22;6852;51.686;5.314;2022-12-18T12:38:10;-0.50;1.00
13561;DHT22;6852;51.686;5.314;2022-12-18T12:40:47;-0.50;1.00
13561;DHT22;6852;51.686;5.314;2022-12-18T12:43:43;-0.50;1.00
13561;DHT22;6852;51.686;5.314;2022-12-18T12:46:18;-0.60;1.00
13561;DHT22;6852;51.686;5.314;2022-12-18T12:48:54;-0.50;1.00
13561;DHT22;6852;51.686;5.314;2022-12-18T12:53:49;-0.40;1.00
13561;DHT22;6852;51.686;5.314;2022-12-18T12:56:20;-0.40;1.00
13561;DHT22;6852;51.686;5.314;2022-12-18T13:01:39;-0.40;1.00
13561;DHT22;6852;51.686;5.314;2022-12-18T13:04:21;-0.30;1.00
13561;DHT22;6852;51.686;5.314;2022-12-18T13:07:24;-0.30;1.00
13561;DHT22;6852;51.686;5.314;2022-12-18T13:18:05;-0.20;1.00
13561;DHT22;6852;51.686;5.314;2022-12-18T13:23:33;-0.30;1.00
13561;DHT22;6852;51.686;5.314;2022-12-18T13:31:14;-0.10;1.00
13561;DHT22;6852;51.686;5.314;2022-12-18T13:33:45;0.00;1.00
13561;DHT22;6852;51.686;5.314;2022-12-18T13:36:33;-0.10;1.00
13561;DHT22;6852;51.686;5.314;2022-12-18T13:41:49;-0.10;1.00
13561;DHT22;6852;51.686;5.314;2022-12-18T13:44:32;0.00;1.00
13561;DHT22;6852;51.686;5.314;2022-12-18T13:49:56;0.00;1.00
13561;DHT22;6852;51.686;5.314;2022-12-18T13:52:28;0.10;1.00
13561;DHT22;6852;51.686;5.314;2022-12-18T13:55:02;0.10;99.90
13561;DHT22;6852;51.686;5.314;2022-12-18T13:57:36;0.00;99.90
13561;DHT22;6852;51.686;5.314;2022-12-18T14:00:24;0.00;1.00
13561;DHT22;6852;51.686;5.314;2022-12-18T14:02:52;0.10;1.00
13561;DHT22;6852;51.686;5.314;2022-12-18T14:07:55;0.00;99.90
13561;DHT22;6852;51.686;5.314;2022-12-18T14:10:25;0.00;1.00
13561;DHT22;6852;51.686;5.314;2022-12-18T14:13:29;0.00;1.00
13561;DHT22;6852;51.686;5.314;2022-12-18T14:15:57;0.00;1.00
13561;DHT22;6852;51.686;5.314;2022-12-18T14:21:23;0.10;1.00
13561;DHT22;6852;51.686;5.314;2022-12-18T14:24:18;0.10;1.00
13561;DHT22;6852;51.686;5.314;2022-12-18T14:26:47;0.20;1.00
13561;DHT22;6852;51.686;5.314;2022-12-18T14:29:27;0.10;99.90
13561;DHT22;6852;51.686;5.314;2022-12-18T14:32:11;0.20;1.00
13561;DHT22;6852;51.686;5.314;2022-12-18T14:34:49;0.10;1.00
13561;DHT22;6852;51.686;5.314;2022-12-18T14:37:20;0.30;1.00
13561;DHT22;6852;51.686;5.314;2022-12-18T14:39:58;0.20;99.90
13561;DHT22;6852;51.686;5.314;2022-12-18T14:42:30;0.30;1.00
13561;DHT22;6852;51.686;5.314;2022-12-18T14:45:35;0.20;1.00
13561;DHT22;6852;51.686;5.314;2022-12-18T14:51:00;0.30;99.90
13561;DHT22;6852;51.686;5.314;2022-12-18T14:53:36;0.30;1.00
13561;DHT22;6852;51.686;5.314;2022-12-18T14:56:21;0.10;1.00
13561;DHT22;6852;51.686;5.314;2022-12-18T14:58:50;0.20;1.00
13561;DHT22;6852;51.686;5.314;2022-12-18T15:01:36;0.10;1.00
13561;DHT22;6852;51.686;5.314;2022-12-18T15:04:05;0.20;1.00
13561;DHT22;6852;51.686;5.314;2022-12-18T15:07:12;0.10;1.00
13561;DHT22;6852;51.686;5.314;2022-12-18T15:09:42;0.10;1.00
13561;DHT22;6852;51.686;5.314;2022-12-18T15:12:37;0.10;1.00
13561;DHT22;6852;51.686;5.314;2022-12-18T15:15:43;0.20;1.00
13561;DHT22;6852;51.686;5.314;2022-12-18T15:18:12;0.20;1.00
13561;DHT22;6852;51.686;5.314;2022-12-18T15:20:58;0.20;1.00
13561;DHT22;6852;51.686;5.314;2022-12-18T15:26:06;0.10;1.00
13561;DHT22;6852;51.686;5.314;2022-12-18T15:28:52;0.20;1.00
13561;DHT22;6852;51.686;5.314;2022-12-18T15:31:24;0.10;1.00
13561;DHT22;6852;51.686;5.314;2022-12-18T15:36:23;0.10;1.00
13561;DHT22;6852;51.686;5.314;2022-12-18T15:38:53;0.20;1.00
13561;DHT22;6852;51.686;5.314;2022-12-18T15:41:33;0.20;1.00
13561;DHT22;6852;51.686;5.314;2022-12-18T15:44:02;0.20;1.00
13561;DHT22;6852;51.686;5.314;2022-12-18T15:46:30;0.20;1.00
13561;DHT22;6852;51.686;5.314;2022-12-18T15:48:58;0.20;1.00
13561;DHT22;6852;51.686;5.314;2022-12-18T15:51:33;0.10;1.00
13561;DHT22;6852;51.686;5.314;2022-12-18T15:54:02;0.20;1.00
13561;DHT22;6852;51.686;5.314;2022-12-18T15:56:32;0.20;1.00
13561;DHT22;6852;51.686;5.314;2022-12-18T15:59:19;0.30;99.90
13561;DHT22;6852;51.686;5.314;2022-12-18T16:01:48;0.30;99.90
13561;DHT22;6852;51.686;5.314;2022-12-18T16:04:17;0.30;99.90
13561;DHT22;6852;51.686;5.314;2022-12-18T16:06:46;0.30;99.90
13561;DHT22;6852;51.686;5.314;2022-12-18T16:09:33;0.20;99.90
13561;DHT22;6852;51.686;5.314;2022-12-18T16:12:00;0.30;1.00
13561;DHT22;6852;51.686;5.314;2022-12-18T16:14:29;0.30;99.90
13561;DHT22;6852;51.686;5.314;2022-12-18T16:16:59;0.20;99.90
13561;DHT22;6852;51.686;5.314;2022-12-18T16:19:27;0.20;1.00
13561;DHT22;6852;51.686;5.314;2022-12-18T16:21:55;0.20;1.00
13561;DHT22;6852;51.686;5.314;2022-12-18T16:24:25;0.20;99.90
13561;DHT22;6852;51.686;5.314;2022-12-18T16:26:53;0.30;99.90
13561;DHT22;6852;51.686;5.314;2022-12-18T16:29:20;0.30;99.90
13561;DHT22;6852;51.686;5.314;2022-12-18T16:31:51;0.30;99.90
13561;DHT22;6852;51.686;5.314;2022-12-18T16:34:21;0.30;99.90
13561;DHT22;6852;51.686;5.314;2022-12-18T16:36:56;0.40;99.90
13561;DHT22;6852;51.686;5.314;2022-12-18T16:39:34;0.30;99.90
13561;DHT22;6852;51.686;5.314;2022-12-18T16:42:08;0.40;99.90
13561;DHT22;6852;51.686;5.314;2022-12-18T16:44:36;0.30;99.90
13561;DHT22;6852;51.686;5.314;2022-12-18T16:47:03;0.30;99.90
13561;DHT22;6852;51.686;5.314;2022-12-18T16:49:30;0.30;99.90
13561;DHT22;6852;51.686;5.314;2022-12-18T16:51:57;0.30;99.90
13561;DHT22;6852;51.686;5.314;2022-12-18T16:54:24;0.40;1.00
13561;DHT22;6852;51.686;5.314;2022-12-18T16:56:51;0.40;99.90
13561;DHT22;6852;51.686;5.314;2022-12-18T16:59:18;0.50;99.90
13561;DHT22;6852;51.686;5.314;2022-12-18T17:01:45;0.50;99.90
13561;DHT22;6852;51.686;5.314;2022-12-18T17:04:13;0.50;99.90
13561;DHT22;6852;51.686;5.314;2022-12-18T17:06:43;0.50;99.90
13561;DHT22;6852;51.686;5.314;2022-12-18T17:09:12;0.40;99.90
13561;DHT22;6852;51.686;5.314;2022-12-18T17:11:42;0.50;99.90
13561;DHT22;6852;51.686;5.314;2022-12-18T17:14:15;0.50;99.90
13561;DHT22;6852;51.686;5.314;2022-12-18T17:16:42;0.40;99.90
13561;DHT22;6852;51.686;5.314;2022-12-18T17:19:10;0.50;99.90
13561;DHT22;6852;51.686;5.314;2022-12-18T17:21:44;0.50;99.90
13561;DHT22;6852;51.686;5.314;2022-12-18T17:24:11;0.60;99.90
13561;DHT22;6852;51.686;5.314;2022-12-18T17:26:38;0.50;99.90
13561;DHT22;6852;51.686;5.314;2022-12-18T17:29:05;0.60;99.90
13561;DHT22;6852;51.686;5.314;2022-12-18T17:31:32;0.60;99.90
13561;DHT22;6852;51.686;5.314;2022-12-18T17:34:00;0.60;99.90
13561;DHT22;6852;51.686;5.314;2022-12-18T17:36:28;0.60;99.90
13561;DHT22;6852;51.686;5.314;2022-12-18T17:38:58;0.60;99.90
13561;DHT22;6852;51.686;5.314;2022-12-18T17:41:27;0.60;99.90
13561;DHT22;6852;51.686;5.314;2022-12-18T17:46:22;0.70;99.90
13561;DHT22;6852;51.686;5.314;2022-12-18T17:48:49;0.70;99.90
13561;DHT22;6852;51.686;5.314;2022-12-18T17:51:17;0.70;99.90
13561;DHT22;6852;51.686;5.314;2022-12-18T17:53:44;0.60;99.90
13561;DHT22;6852;51.686;5.314;2022-12-18T17:56:12;0.50;99.90
13561;DHT22;6852;51.686;5.314;2022-12-18T17:58:40;0.60;99.90
13561;DHT22;6852;51.686;5.314;2022-12-18T18:01:08;0.60;99.90
13561;DHT22;6852;51.686;5.314;2022-12-18T18:03:38;0.60;99.90
13561;DHT22;6852;51.686;5.314;2022-12-18T18:06:06;0.70;99.90
13561;DHT22;6852;51.686;5.314;2022-12-18T18:08:34;0.70;99.90
13561;DHT22;6852;51.686;5.314;2022-12-18T18:11:05;0.80;99.90
13561;DHT22;6852;51.686;5.314;2022-12-18T18:13:51;0.70;99.90